Time;durP1;ratioP1;P1;durP2;ratioP2;P2;SDS_P1;SDS_P2;PMS_P1;PMS_P2;Temp;Humidity;BMP_temperature;BMP_pressure;BME280_temperature;BME280_humidity;BME280_pressure;Samples;Min_cycle;Max_cycle;Signal;HPM_P1;HPM_P2
2020/12/16 00:02:19;;;;;;;9.35;3.38;;;6.50;99.90;;;;;;5016623;28;20248;-71
2020/12/16 00:04:46;;;;;;;5.28;2.97;;;6.40;99.90;;;;;;5015778;28;20293;-71
2020/12/16 00:07:12;;;;;;;5.82;2.83;;;6.40;99.90;;;;;;5012323;28;20202;-70
2020/12/16 00:09:38;;;;;;;5.88;3.10;;;6.40;99.90;;;;;;5013012;28;20198;-71
2020/12/16 00:12:04;;;;;;;8.40;3.13;;;6.40;99.90;;;;;;5012739;28;20763;-71
2020/12/16 00:14:29;;;;;;;6.55;2.83;;;6.30;99.90;;;;;;5023735;28;20210;-71
2020/12/16 00:16:55;;;;;;;7.25;2.90;;;6.30;99.90;;;;;;5014854;28;20194;-71
2020/12/16 00:19:21;;;;;;;6.22;3.22;;;6.20;99.90;;;;;;5008712;28;20810;-71
2020/12/16 00:21:47;;;;;;;5.47;3.38;;;6.20;99.90;;;;;;5010855;28;20537;-71
2020/12/16 00:24:12;;;;;;;7.00;3.10;;;6.20;99.90;;;;;;5013112;28;20218;-71
2020/12/16 00:26:38;;;;;;;6.97;3.00;;;6.10;99.90;;;;;;5006268;28;20213;-71
2020/12/16 00:29:04;;;;;;;6.38;3.03;;;6.10;99.90;;;;;;5008264;28;20190;-71
2020/12/16 00:31:30;;;;;;;14.85;3.65;;;6.10;99.90;;;;;;5009345;28;20199;-71
2020/12/16 00:33:56;;;;;;;9.90;2.70;;;6.10;99.90;;;;;;5007727;28;20206;-70
2020/12/16 00:36:22;;;;;;;7.60;2.83;;;6.10;99.90;;;;;;5012444;28;20202;-71
2020/12/16 00:38:47;;;;;;;5.80;3.15;;;6.10;99.90;;;;;;5011965;28;20284;-71
2020/12/16 00:41:13;;;;;;;10.38;3.33;;;6.10;99.90;;;;;;5014320;28;21408;-71
2020/12/16 00:43:39;;;;;;;6.70;3.20;;;6.10;99.90;;;;;;5009659;28;20589;-71
2020/12/16 00:46:05;;;;;;;6.22;3.50;;;6.10;99.90;;;;;;5013029;28;20320;-71
2020/12/16 00:48:30;;;;;;;6.47;3.10;;;6.10;99.90;;;;;;5011400;28;20198;-71
2020/12/16 00:50:56;;;;;;;6.40;3.10;;;6.10;99.90;;;;;;5012693;28;20646;-71
2020/12/16 00:53:22;;;;;;;5.70;3.38;;;6.10;99.90;;;;;;5009471;28;20210;-71
2020/12/16 00:55:47;;;;;;;5.57;3.00;;;6.10;99.90;;;;;;5010544;28;20271;-71
2020/12/16 00:58:13;;;;;;;6.90;3.22;;;6.10;99.90;;;;;;5011639;28;20217;-71
2020/12/16 01:00:39;;;;;;;6.45;2.85;;;6.10;99.90;;;;;;5014821;28;20194;-71
2020/12/16 01:03:04;;;;;;;8.40;3.22;;;6.00;99.90;;;;;;5013245;28;20196;-71
2020/12/16 01:05:30;;;;;;;5.45;3.28;;;6.10;99.90;;;;;;5008093;28;20316;-71
2020/12/16 01:07:56;;;;;;;8.13;3.05;;;6.10;99.90;;;;;;5006760;28;20206;-71
2020/12/16 01:10:21;;;;;;;4.45;2.97;;;6.10;99.90;;;;;;5008160;28;20203;-71
2020/12/16 01:12:48;;;;;;;6.40;2.92;;;6.10;99.90;;;;;;5008106;28;20226;-71
2020/12/16 01:15:17;;;;;;;7.05;3.13;;;6.10;99.90;;;;;;5011487;28;20210;-71
2020/12/16 01:17:45;;;;;;;7.68;3.42;;;6.10;99.90;;;;;;5008840;28;20232;-71
2020/12/16 01:20:12;;;;;;;6.60;3.13;;;6.10;99.90;;;;;;5010049;28;20727;-71
2020/12/16 01:22:46;;;;;;;7.07;3.08;;;6.10;99.90;;;;;;5014581;28;20332;-71
2020/12/16 01:25:12;;;;;;;5.57;3.33;;;6.10;99.90;;;;;;5016236;28;20281;-71
2020/12/16 01:27:38;;;;;;;12.00;3.53;;;6.00;99.90;;;;;;5011666;28;20724;-71
2020/12/16 01:30:05;;;;;;;5.07;3.13;;;6.10;99.90;;;;;;5011653;28;20605;-71
2020/12/16 01:32:32;;;;;;;3.72;2.50;;;6.10;99.90;;;;;;5009771;28;20186;-71
2020/12/16 01:34:59;;;;;;;7.35;2.72;;;6.10;99.90;;;;;;5012057;28;20718;-71
2020/12/16 01:37:25;;;;;;;6.18;2.97;;;6.10;99.90;;;;;;5012063;28;20218;-71
2020/12/16 01:39:50;;;;;;;4.35;2.80;;;6.10;99.90;;;;;;5013344;28;20251;-71
2020/12/16 01:42:16;;;;;;;5.55;2.92;;;6.00;99.90;;;;;;5015807;28;20284;-71
2020/12/16 01:44:42;;;;;;;10.13;2.85;;;6.00;99.90;;;;;;5014134;28;20274;-71
2020/12/16 01:47:08;;;;;;;5.95;2.92;;;6.00;99.90;;;;;;5014935;28;20302;-72
2020/12/16 01:49:34;;;;;;;4.70;2.70;;;6.00;99.90;;;;;;5017351;28;20745;-71
2020/12/16 01:52:04;;;;;;;4.25;2.50;;;5.90;99.90;;;;;;5022521;28;20680;-71
2020/12/16 01:54:33;;;;;;;5.93;2.33;;;5.90;99.90;;;;;;5014608;28;20194;-71
2020/12/16 01:57:02;;;;;;;4.30;2.40;;;5.90;99.90;;;;;;5016052;28;20194;-71
2020/12/16 01:59:34;;;;;;;4.38;2.33;;;5.90;99.90;;;;;;5013855;28;20650;-71
2020/12/16 02:02:01;;;;;;;3.95;2.40;;;5.90;99.90;;;;;;5018487;23;20234;-72
2020/12/16 02:04:32;;;;;;;4.55;2.83;;;5.90;99.90;;;;;;4994045;28;20195;-72
2020/12/16 02:07:00;;;;;;;4.45;2.10;;;5.80;99.90;;;;;;4995009;28;20932;-72
2020/12/16 02:09:26;;;;;;;3.75;2.22;;;5.80;99.90;;;;;;4992516;28;20199;-71
2020/12/16 02:11:52;;;;;;;2.72;2.00;;;5.80;99.90;;;;;;4996103;28;20245;-72
2020/12/16 02:14:18;;;;;;;2.65;1.75;;;5.80;99.90;;;;;;4991108;28;20221;-72
2020/12/16 02:16:43;;;;;;;2.80;1.88;;;5.80;99.90;;;;;;4995459;28;20210;-72
2020/12/16 02:19:10;;;;;;;3.08;1.90;;;5.80;99.90;;;;;;4992725;28;21026;-72
2020/12/16 02:21:37;;;;;;;4.22;2.05;;;5.70;99.90;;;;;;4994212;28;20928;-72
2020/12/16 02:24:07;;;;;;;2.10;1.75;;;5.70;99.90;;;;;;4993032;28;20716;-72
2020/12/16 02:26:35;;;;;;;4.55;1.90;;;5.70;99.90;;;;;;4992974;28;20222;-72
2020/12/16 02:29:01;;;;;;;3.83;1.90;;;5.70;99.90;;;;;;4991024;28;20278;-72
2020/12/16 02:31:29;;;;;;;3.85;2.00;;;5.70;99.90;;;;;;4993227;28;20286;-71
2020/12/16 02:33:56;;;;;;;4.72;1.80;;;5.70;99.90;;;;;;4991437;28;20199;-72
2020/12/16 02:36:22;;;;;;;3.03;1.80;;;5.70;99.90;;;;;;4993536;28;20245;-71
2020/12/16 02:38:48;;;;;;;6.55;2.05;;;5.70;99.90;;;;;;4990991;28;20293;-72
2020/12/16 02:41:13;;;;;;;1.73;1.48;;;5.70;99.90;;;;;;4995653;28;20254;-71
2020/12/16 02:43:39;;;;;;;2.13;1.70;;;5.60;99.90;;;;;;4999954;28;20194;-72
2020/12/16 02:46:05;;;;;;;5.93;1.90;;;5.60;99.90;;;;;;4994747;28;20206;-71
2020/12/16 02:48:31;;;;;;;2.65;1.58;;;5.60;99.90;;;;;;4995938;28;20202;-72
2020/12/16 02:50:56;;;;;;;1.77;1.42;;;5.50;99.90;;;;;;4992216;28;20670;-72
2020/12/16 02:53:22;;;;;;;2.30;1.50;;;5.50;99.90;;;;;;4993388;28;20205;-71
2020/12/16 02:55:48;;;;;;;1.48;1.30;;;5.50;99.90;;;;;;4992901;28;20191;-72
2020/12/16 02:58:13;;;;;;;1.67;1.42;;;5.50;99.90;;;;;;4992371;28;20677;-71
2020/12/16 03:00:39;;;;;;;2.03;1.13;;;5.40;99.90;;;;;;4993086;28;20196;-71
2020/12/16 03:03:05;;;;;;;2.47;1.45;;;5.30;99.90;;;;;;4991819;28;20206;-71
2020/12/16 03:05:31;;;;;;;1.52;1.40;;;5.20;99.90;;;;;;4994424;28;20245;-71
2020/12/16 03:07:56;;;;;;;3.13;1.40;;;5.20;99.90;;;;;;4993711;28;20210;-72
2020/12/16 03:10:22;;;;;;;4.32;1.70;;;5.20;99.90;;;;;;4994157;28;20199;-72
2020/12/16 03:12:48;;;;;;;2.08;1.25;;;5.20;99.90;;;;;;4994528;28;20649;-71
2020/12/16 03:15:13;;;;;;;2.45;1.50;;;5.20;99.90;;;;;;4991992;28;20576;-71
2020/12/16 03:17:39;;;;;;;2.97;1.40;;;5.20;99.90;;;;;;4989382;28;20301;-71
2020/12/16 03:20:05;;;;;;;1.70;1.40;;;5.20;99.90;;;;;;5009499;28;20198;-71
2020/12/16 03:22:30;;;;;;;3.22;1.48;;;5.20;99.90;;;;;;4993638;28;20200;-71
2020/12/16 03:24:56;;;;;;;2.05;1.63;;;5.20;99.90;;;;;;4997289;28;20203;-72
2020/12/16 03:27:22;;;;;;;3.00;1.50;;;5.00;99.90;;;;;;4990403;28;20318;-71
2020/12/16 03:29:48;;;;;;;1.58;1.25;;;5.00;99.90;;;;;;5006477;28;20199;-71
2020/12/16 03:32:14;;;;;;;3.00;1.88;;;4.90;99.90;;;;;;4994440;28;20217;-71
2020/12/16 03:34:39;;;;;;;2.30;1.55;;;5.00;99.90;;;;;;4995730;28;20199;-72
2020/12/16 03:37:05;;;;;;;2.08;1.30;;;4.90;99.90;;;;;;4996065;28;20676;-72
2020/12/16 03:39:31;;;;;;;4.55;1.17;;;5.00;99.90;;;;;;5015704;28;20206;-71
2020/12/16 03:41:56;;;;;;;2.50;1.40;;;4.90;99.90;;;;;;4999081;28;20423;-72
2020/12/16 03:44:22;;;;;;;2.25;1.30;;;4.90;99.90;;;;;;4995749;28;20537;-71
2020/12/16 03:46:51;;;;;;;5.32;1.70;;;4.90;99.90;;;;;;5000896;28;20260;-72
2020/12/16 03:49:18;;;;;;;2.13;1.25;;;4.80;99.90;;;;;;4996333;28;20203;-73
2020/12/16 03:51:45;;;;;;;2.05;1.40;;;4.70;99.90;;;;;;4999298;28;20634;-71
2020/12/16 03:54:11;;;;;;;1.15;1.00;;;4.80;99.90;;;;;;4995640;28;21036;-71
2020/12/16 03:56:37;;;;;;;1.33;1.08;;;4.70;99.90;;;;;;4998491;28;20191;-71
2020/12/16 03:59:03;;;;;;;1.10;1.00;;;4.70;99.90;;;;;;4991432;28;20221;-71
2020/12/16 04:01:28;;;;;;;1.55;0.90;;;4.70;99.90;;;;;;4998411;28;20317;-71
2020/12/16 04:03:54;;;;;;;3.13;1.15;;;4.80;99.90;;;;;;4996512;28;20202;-72
2020/12/16 04:06:20;;;;;;;1.20;1.10;;;4.70;99.90;;;;;;4998463;28;20195;-71
2020/12/16 04:08:45;;;;;;;1.65;1.20;;;4.70;99.90;;;;;;4994620;28;20203;-72
2020/12/16 04:11:16;;;;;;;1.17;1.08;;;4.70;99.90;;;;;;4993294;28;20241;-71
2020/12/16 04:13:42;;;;;;;1.10;1.00;;;4.70;99.90;;;;;;4998472;28;20285;-71
2020/12/16 04:16:14;;;;;;;1.95;1.15;;;4.60;99.90;;;;;;4992357;28;20207;-72
2020/12/16 04:18:39;;;;;;;1.08;0.98;;;4.70;99.90;;;;;;4994705;28;20247;-71
2020/12/16 04:21:06;;;;;;;3.60;0.88;;;4.60;99.90;;;;;;4998159;28;20740;-72
2020/12/16 04:23:32;;;;;;;2.83;1.10;;;4.70;99.90;;;;;;4996139;28;20613;-72
2020/12/16 04:25:58;;;;;;;1.90;0.90;;;4.70;99.90;;;;;;4994190;28;20674;-71
2020/12/16 04:28:24;;;;;;;2.50;1.02;;;4.70;99.90;;;;;;4991800;28;20211;-72
2020/12/16 04:30:50;;;;;;;2.30;1.20;;;4.70;99.90;;;;;;4993971;28;20194;-72
2020/12/16 04:33:15;;;;;;;1.20;1.10;;;4.70;99.90;;;;;;4993422;28;20952;-71
2020/12/16 04:35:41;;;;;;;1.40;1.20;;;4.60;99.90;;;;;;4992641;28;20607;-73
2020/12/16 04:38:06;;;;;;;2.83;1.20;;;4.60;99.90;;;;;;4993356;28;20272;-71
2020/12/16 04:40:32;;;;;;;1.45;1.10;;;4.60;99.90;;;;;;4995036;28;20244;-72
2020/12/16 04:43:09;;;;;;;2.30;1.08;;;4.60;99.90;;;;;;4999352;28;20230;-71
2020/12/16 04:45:39;;;;;;;2.00;1.10;;;4.60;99.90;;;;;;4994420;28;20237;-71
2020/12/16 04:48:09;;;;;;;1.80;1.10;;;4.60;99.90;;;;;;4991589;28;20199;-72
2020/12/16 04:50:36;;;;;;;3.30;1.35;;;4.60;99.90;;;;;;4991967;28;20233;-72
2020/12/16 04:53:14;;;;;;;1.35;1.13;;;4.60;99.90;;;;;;4991610;28;20202;-70
2020/12/16 04:55:41;;;;;;;2.20;1.00;;;4.60;99.90;;;;;;4995730;28;20606;-72
2020/12/16 04:58:09;;;;;;;2.53;1.00;;;4.70;99.90;;;;;;4997527;28;20235;-71
2020/12/16 05:00:35;;;;;;;1.40;1.13;;;4.70;99.90;;;;;;5013691;28;20211;-71
2020/12/16 05:03:08;;;;;;;1.73;1.13;;;4.70;99.90;;;;;;5000434;28;20198;-72
2020/12/16 05:05:35;;;;;;;2.28;1.20;;;4.60;99.90;;;;;;4999091;28;20204;-72
2020/12/16 05:08:11;;;;;;;3.28;1.20;;;4.60;99.90;;;;;;4994478;28;20222;-71
2020/12/16 05:10:40;;;;;;;1.30;0.98;;;4.60;99.90;;;;;;4994997;28;20194;-71
2020/12/16 05:13:09;;;;;;;0.80;0.80;;;4.70;99.90;;;;;;4997918;28;20214;-72
2020/12/16 05:15:37;;;;;;;2.25;1.00;;;4.70;99.90;;;;;;4996816;28;20203;-72
2020/12/16 05:18:06;;;;;;;1.10;1.00;;;4.70;99.90;;;;;;4994968;28;20563;-72
2020/12/16 05:20:32;;;;;;;1.73;1.05;;;4.70;99.90;;;;;;4994190;28;20199;-72
2020/12/16 05:23:00;;;;;;;2.35;1.20;;;4.60;99.90;;;;;;5016293;28;20620;-71
2020/12/16 05:25:27;;;;;;;3.15;1.35;;;4.70;99.90;;;;;;4993010;28;20199;-71
2020/12/16 05:27:53;;;;;;;1.52;1.13;;;4.70;99.90;;;;;;4996960;28;20997;-72
2020/12/16 05:30:18;;;;;;;1.23;0.90;;;4.70;99.90;;;;;;4998137;28;20626;-72
2020/12/16 05:32:44;;;;;;;1.85;1.23;;;4.70;99.90;;;;;;4999125;28;20199;-72
2020/12/16 05:35:43;;;;;;;1.63;1.00;;;4.70;99.90;;;;;;4994480;28;20952;-71
2020/12/16 05:38:10;;;;;;;3.85;1.17;;;4.80;99.90;;;;;;4987306;28;20215;-71
2020/12/16 05:40:40;;;;;;;1.27;1.00;;;4.70;99.90;;;;;;4996834;28;20206;-72
2020/12/16 05:43:07;;;;;;;2.28;1.20;;;4.70;99.90;;;;;;5003296;28;20871;-73
2020/12/16 05:45:40;;;;;;;1.33;1.10;;;4.70;99.90;;;;;;5000517;28;20194;-71
2020/12/16 05:48:08;;;;;;;1.30;1.20;;;4.80;99.90;;;;;;4993471;28;20282;-72
2020/12/16 05:50:40;;;;;;;2.55;1.10;;;4.80;99.90;;;;;;4993621;28;20227;-73
2020/12/16 05:53:29;;;;;;;1.42;1.13;;;4.80;99.90;;;;;;5014239;28;20214;-71
2020/12/16 05:55:58;;;;;;;1.17;1.08;;;4.70;99.90;;;;;;5001121;28;20536;-71
2020/12/16 05:58:26;;;;;;;1.20;1.10;;;4.70;99.90;;;;;;4997010;28;20199;-71
2020/12/16 06:00:53;;;;;;;1.45;1.10;;;4.70;99.90;;;;;;5005600;28;20314;-71
2020/12/16 06:03:21;;;;;;;1.38;1.10;;;4.70;99.90;;;;;;5000913;28;20283;-71
2020/12/16 06:05:52;;;;;;;6.53;1.23;;;4.70;99.90;;;;;;5005822;28;20300;-71
2020/12/16 06:08:19;;;;;;;4.05;1.25;;;4.70;99.90;;;;;;5001110;28;20207;-71
2020/12/16 06:10:47;;;;;;;4.53;1.58;;;4.70;99.90;;;;;;5003906;28;20225;-72
2020/12/16 06:13:14;;;;;;;1.60;1.30;;;4.70;99.90;;;;;;5003843;28;20247;-72
2020/12/16 06:15:52;;;;;;;1.30;1.20;;;4.80;99.90;;;;;;5005453;28;20256;-71
2020/12/16 06:18:19;;;;;;;1.48;1.30;;;4.70;99.90;;;;;;5005779;28;20202;-72
2020/12/16 06:20:44;;;;;;;2.10;1.40;;;4.70;99.90;;;;;;5005336;28;20202;-72
2020/12/16 06:23:32;;;;;;;2.03;1.30;;;4.70;99.90;;;;;;5005584;28;20445;-72
2020/12/16 06:26:00;;;;;;;2.38;1.20;;;4.70;99.90;;;;;;5006047;28;20195;-71
2020/12/16 06:28:27;;;;;;;3.67;1.35;;;4.70;99.90;;;;;;5003447;28;20225;-71
2020/12/16 06:31:26;;;;;;;2.47;1.30;;;4.60;99.90;;;;;;5004310;28;20210;-71
2020/12/16 06:34:12;;;;;;;6.18;1.30;;;4.60;99.90;;;;;;4994890;28;20207;-72
2020/12/16 06:36:42;;;;;;;2.20;1.33;;;4.60;99.90;;;;;;4998527;28;20502;-72
2020/12/16 06:39:15;;;;;;;2.63;1.25;;;4.60;99.90;;;;;;4995520;28;20215;-72
2020/12/16 06:41:52;;;;;;;1.50;1.10;;;4.60;99.90;;;;;;4999308;28;20191;-72
2020/12/16 06:44:17;;;;;;;2.05;1.30;;;4.60;99.90;;;;;;4997841;28;20204;-72
2020/12/16 06:46:46;;;;;;;1.10;1.00;;;4.60;99.90;;;;;;4999851;28;20984;-72
2020/12/16 06:49:24;;;;;;;1.83;1.20;;;4.70;99.90;;;;;;5002042;28;20202;-72
2020/12/16 06:51:52;;;;;;;5.20;1.38;;;4.70;99.90;;;;;;4996788;28;20198;-72
2020/12/16 06:54:20;;;;;;;4.70;2.35;;;4.60;99.90;;;;;;4999204;28;20209;-72
2020/12/16 06:57:09;;;;;;;4.40;2.67;;;4.70;99.90;;;;;;5000045;28;20604;-72
2020/12/16 07:00:02;;;;;;;5.60;1.50;;;4.70;99.90;;;;;;4994686;28;20257;-71
2020/12/16 07:02:31;;;;;;;3.05;1.20;;;4.70;99.90;;;;;;4996999;28;20261;-72
2020/12/16 07:04:58;;;;;;;2.90;1.35;;;4.70;99.90;;;;;;4999503;28;20672;-73
2020/12/16 07:07:40;;;;;;;2.67;1.38;;;4.70;99.90;;;;;;5001367;28;20218;-72
2020/12/16 07:10:30;;;;;;;2.88;1.45;;;4.60;99.90;;;;;;5000725;28;20245;-71
2020/12/16 07:13:20;;;;;;;3.22;1.38;;;4.60;99.90;;;;;;5004125;28;20233;-72
2020/12/16 07:16:16;;;;;;;2.63;1.85;;;4.60;99.90;;;;;;5001198;28;20242;-72
2020/12/16 07:18:49;;;;;;;2.95;1.50;;;4.60;99.90;;;;;;4999675;28;20225;-72
2020/12/16 07:21:23;;;;;;;2.88;1.92;;;4.60;99.90;;;;;;5001708;28;20779;-71
2020/12/16 07:23:54;;;;;;;3.13;2.42;;;4.60;99.90;;;;;;5007963;28;20191;-71
2020/12/16 07:26:29;;;;;;;4.13;2.35;;;4.60;99.90;;;;;;5001463;28;20198;-72
2020/12/16 07:28:57;;;;;;;3.20;1.45;;;4.60;99.90;;;;;;5000229;28;20566;-73
2020/12/16 07:31:23;;;;;;;5.72;2.85;;;4.60;99.90;;;;;;5002928;28;20191;-72
2020/12/16 07:33:49;;;;;;;4.35;2.00;;;4.60;99.90;;;;;;5010319;28;20744;-72
2020/12/16 07:36:17;;;;;;;3.30;1.67;;;4.60;99.90;;;;;;4995139;28;20211;-71
2020/12/16 07:38:51;;;;;;;5.47;3.13;;;4.60;99.90;;;;;;5000861;28;20297;-72
2020/12/16 07:41:29;;;;;;;5.75;2.72;;;4.50;99.90;;;;;;5000130;28;20209;-72
2020/12/16 07:43:56;;;;;;;2.72;1.80;;;4.60;99.90;;;;;;5000205;28;20238;-72
2020/12/16 07:46:23;;;;;;;4.35;1.88;;;4.60;99.90;;;;;;4998972;28;20195;-72
2020/12/16 07:48:49;;;;;;;4.82;1.63;;;4.60;99.90;;;;;;5003277;28;20198;-73
2020/12/16 07:51:18;;;;;;;3.05;1.30;;;4.60;99.90;;;;;;5000185;28;20322;-71
2020/12/16 07:53:49;;;;;;;2.67;1.30;;;4.50;99.90;;;;;;5000284;28;21009;-72
2020/12/16 07:56:16;;;;;;;4.20;2.53;;;4.60;99.90;;;;;;5000200;28;20711;-72
2020/12/16 07:58:43;;;;;;;3.28;2.00;;;4.50;99.90;;;;;;4999839;28;20269;-72
2020/12/16 08:01:13;;;;;;;3.72;1.23;;;4.60;99.90;;;;;;5000027;28;20743;-72
2020/12/16 08:03:40;;;;;;;3.67;1.60;;;4.50;99.90;;;;;;4999451;28;21364;-72
2020/12/16 08:06:06;;;;;;;2.20;1.50;;;4.60;99.90;;;;;;5001548;28;20205;-71
2020/12/16 08:08:41;;;;;;;1.85;1.40;;;4.50;99.90;;;;;;4997895;28;20365;-72
2020/12/16 08:11:15;;;;;;;4.78;1.38;;;4.50;99.90;;;;;;5000425;28;20202;-71
2020/12/16 08:13:41;;;;;;;2.25;1.55;;;4.50;99.90;;;;;;4998377;28;20195;-72
2020/12/16 08:16:07;;;;;;;5.05;2.42;;;4.50;99.90;;;;;;5001419;28;20800;-71
2020/12/16 08:18:33;;;;;;;5.05;2.17;;;4.60;99.90;;;;;;4998360;28;20534;-71
2020/12/16 08:20:59;;;;;;;3.22;1.95;;;4.50;99.90;;;;;;4998420;28;20195;-71
2020/12/16 08:23:25;;;;;;;2.58;1.60;;;4.50;99.90;;;;;;5000099;28;20198;-72
2020/12/16 08:25:51;;;;;;;3.40;1.70;;;4.60;99.90;;;;;;4998426;28;20203;-72
2020/12/16 08:28:27;;;;;;;4.93;1.88;;;4.60;99.90;;;;;;4998437;28;20258;-71
2020/12/16 08:30:53;;;;;;;4.25;2.05;;;4.60;99.90;;;;;;4997656;28;20289;-72
2020/12/16 08:33:20;;;;;;;5.05;2.15;;;4.60;99.90;;;;;;4999446;28;20206;-72
2020/12/16 08:36:09;;;;;;;5.28;2.13;;;4.60;99.90;;;;;;5015689;28;20206;-71
2020/12/16 08:38:41;;;;;;;2.53;1.60;;;4.60;99.90;;;;;;5000847;28;21220;-72
2020/12/16 08:41:12;;;;;;;5.05;1.60;;;4.70;99.90;;;;;;5000467;28;20222;-71
2020/12/16 08:43:42;;;;;;;3.03;1.92;;;4.60;99.90;;;;;;5001312;28;20608;-72
2020/12/16 08:46:12;;;;;;;1.70;1.25;;;4.60;99.90;;;;;;4999259;28;20562;-73
2020/12/16 08:48:39;;;;;;;1.95;1.50;;;4.60;99.90;;;;;;4999594;28;20198;-72
2020/12/16 08:51:07;;;;;;;4.13;1.40;;;4.60;99.90;;;;;;5001706;28;20745;-72
2020/12/16 08:54:05;;;;;;;2.47;1.88;;;4.60;99.90;;;;;;4999488;28;20810;-72
2020/12/16 08:56:37;;;;;;;3.55;1.92;;;4.60;99.90;;;;;;4994813;28;20257;-72
2020/12/16 08:59:13;;;;;;;2.85;2.00;;;4.60;99.90;;;;;;5004270;28;20224;-72
2020/12/16 09:01:42;;;;;;;2.67;1.90;;;4.60;99.90;;;;;;5017206;28;20230;-72
2020/12/16 09:04:09;;;;;;;3.92;2.80;;;4.70;99.90;;;;;;4999471;28;20549;-72
2020/12/16 09:06:35;;;;;;;5.30;1.50;;;4.70;99.90;;;;;;5007570;28;20237;-72
2020/12/16 09:09:12;;;;;;;3.22;1.67;;;4.70;99.90;;;;;;5003319;28;20763;-71
2020/12/16 09:11:45;;;;;;;3.47;2.15;;;4.60;99.90;;;;;;5001627;28;20210;-73
2020/12/16 09:14:11;;;;;;;4.32;1.75;;;4.60;99.90;;;;;;4996116;28;20202;-72
2020/12/16 09:16:36;;;;;;;2.40;1.50;;;4.60;99.90;;;;;;5001432;28;20695;-72
2020/12/16 09:19:02;;;;;;;2.95;1.50;;;4.60;99.90;;;;;;5003230;28;20219;-72
2020/12/16 09:21:33;;;;;;;5.32;1.80;;;4.70;99.90;;;;;;5001949;28;20198;-72
2020/12/16 09:24:01;;;;;;;8.75;5.30;;;4.60;99.90;;;;;;5002019;28;20195;-72
2020/12/16 09:26:55;;;;;;;7.07;2.83;;;4.70;99.90;;;;;;5003508;28;20203;-72
2020/12/16 09:29:26;;;;;;;6.10;2.40;;;4.70;99.90;;;;;;5013144;28;20311;-71
2020/12/16 09:32:07;;;;;;;5.30;3.10;;;4.70;99.90;;;;;;4998957;28;20616;-71
2020/12/16 09:34:45;;;;;;;2.30;1.70;;;4.70;99.90;;;;;;5002340;28;20690;-72
2020/12/16 09:37:11;;;;;;;4.05;2.65;;;4.70;99.90;;;;;;5002679;28;20530;-71
2020/12/16 09:39:36;;;;;;;2.72;1.70;;;4.80;99.90;;;;;;5003809;28;21040;-72
2020/12/16 09:42:08;;;;;;;1.55;1.17;;;4.80;99.90;;;;;;5000900;28;20200;-72
2020/12/16 09:44:34;;;;;;;2.80;1.70;;;4.80;99.90;;;;;;5004568;28;20190;-72
2020/12/16 09:47:13;;;;;;;3.70;1.95;;;4.70;99.90;;;;;;5000049;28;20576;-72
2020/12/16 09:49:40;;;;;;;3.70;1.60;;;4.80;99.90;;;;;;5002990;28;20194;-71
2020/12/16 09:52:23;;;;;;;2.33;1.40;;;4.80;99.90;;;;;;5001202;28;21119;-72
2020/12/16 09:54:48;;;;;;;2.75;1.50;;;4.80;99.90;;;;;;5008078;28;20210;-73
2020/12/16 09:57:14;;;;;;;1.83;1.30;;;4.80;99.90;;;;;;5007681;28;20210;-72
2020/12/16 09:59:39;;;;;;;2.10;1.40;;;4.90;99.90;;;;;;5004765;28;20210;-73
2020/12/16 10:02:05;;;;;;;3.35;1.40;;;4.90;99.90;;;;;;4999848;28;20226;-72
2020/12/16 10:04:31;;;;;;;3.22;1.08;;;4.90;99.90;;;;;;5002942;28;20202;-72
2020/12/16 10:06:57;;;;;;;31.55;14.68;;;4.90;99.90;;;;;;5001759;28;20218;-72
2020/12/16 10:09:22;;;;;;;4.15;2.88;;;4.90;99.90;;;;;;5001350;28;20248;-72
2020/12/16 10:11:50;;;;;;;4.47;2.70;;;5.00;99.90;;;;;;4988261;28;20195;-73
2020/12/16 10:14:17;;;;;;;3.10;1.60;;;5.00;99.90;;;;;;5002945;28;20198;-71
2020/12/16 10:16:49;;;;;;;1.60;1.10;;;5.00;99.90;;;;;;5001523;28;20202;-72
2020/12/16 10:19:16;;;;;;;2.78;1.50;;;5.00;99.90;;;;;;5004586;28;20207;-72
2020/12/16 10:21:42;;;;;;;1.95;1.40;;;4.90;99.90;;;;;;5003983;28;20222;-72
2020/12/16 10:24:08;;;;;;;3.72;1.60;;;5.00;99.90;;;;;;5004818;28;20317;-72
2020/12/16 10:26:34;;;;;;;2.90;1.25;;;5.00;99.90;;;;;;5003655;28;21296;-72
2020/12/16 10:29:00;;;;;;;4.13;1.27;;;5.00;99.90;;;;;;5001366;28;20203;-72
2020/12/16 10:31:26;;;;;;;1.48;1.23;;;5.00;99.90;;;;;;5000009;28;20225;-73
2020/12/16 10:33:51;;;;;;;2.67;1.50;;;5.00;99.90;;;;;;4993669;28;20226;-72
2020/12/16 10:36:17;;;;;;;2.05;1.27;;;5.00;99.90;;;;;;5000400;28;20563;-72
2020/12/16 10:38:43;;;;;;;3.80;1.75;;;4.90;99.90;;;;;;5000267;28;20237;-72
2020/12/16 10:41:11;;;;;;;7.60;1.50;;;4.90;99.90;;;;;;5002272;28;20194;-72
2020/12/16 10:43:37;;;;;;;3.13;1.38;;;4.90;99.90;;;;;;5016562;28;20337;-72
2020/12/16 10:46:07;;;;;;;5.60;1.40;;;4.90;99.90;;;;;;4999817;28;20209;-73
2020/12/16 10:48:32;;;;;;;2.50;1.30;;;4.80;99.90;;;;;;5001675;28;20508;-72
2020/12/16 10:50:58;;;;;;;2.00;1.35;;;4.80;99.90;;;;;;4999923;28;20199;-72
2020/12/16 10:53:25;;;;;;;1.52;1.25;;;4.80;99.90;;;;;;5002384;28;20977;-72
2020/12/16 10:55:52;;;;;;;1.92;1.30;;;4.80;99.90;;;;;;5000054;28;20230;-71
2020/12/16 10:58:18;;;;;;;1.30;1.20;;;4.80;99.90;;;;;;5002453;28;20597;-73
2020/12/16 11:00:44;;;;;;;6.00;1.40;;;4.80;99.90;;;;;;4996448;28;20195;-71
2020/12/16 11:03:09;;;;;;;4.50;1.13;;;4.80;99.90;;;;;;5002831;28;20357;-72
2020/12/16 11:05:35;;;;;;;1.45;1.20;;;4.70;99.90;;;;;;5000593;28;20207;-72
2020/12/16 11:08:01;;;;;;;2.35;1.20;;;4.70;99.90;;;;;;5003321;28;20198;-72
2020/12/16 11:10:27;;;;;;;5.25;1.90;;;4.70;99.90;;;;;;5002675;28;20760;-71
2020/12/16 11:12:52;;;;;;;1.35;1.00;;;4.80;99.90;;;;;;5001215;28;20996;-71
2020/12/16 11:15:18;;;;;;;1.50;1.08;;;4.90;99.90;;;;;;5001123;28;20273;-71
2020/12/16 11:17:44;;;;;;;2.80;1.20;;;4.90;99.90;;;;;;4995316;28;20198;-72
2020/12/16 11:20:09;;;;;;;2.08;1.13;;;4.90;99.90;;;;;;4994550;28;20215;-71
2020/12/16 11:22:37;;;;;;;1.23;1.13;;;4.90;99.90;;;;;;4992009;28;20199;-72
2020/12/16 11:25:06;;;;;;;1.30;1.10;;;4.90;99.90;;;;;;4992557;28;20228;-71
2020/12/16 11:27:32;;;;;;;2.22;1.20;;;4.90;99.90;;;;;;4994576;28;20203;-71
2020/12/16 11:29:58;;;;;;;1.70;1.20;;;4.90;99.90;;;;;;4993050;28;20222;-71
2020/12/16 11:32:23;;;;;;;3.50;1.15;;;5.00;99.90;;;;;;4994088;28;20203;-72
2020/12/16 11:34:49;;;;;;;1.42;1.10;;;5.00;99.90;;;;;;4993034;28;20220;-72
2020/12/16 11:37:15;;;;;;;1.73;0.82;;;5.00;99.90;;;;;;4989118;28;20203;-71
2020/12/16 11:39:42;;;;;;;4.43;1.23;;;5.00;99.90;;;;;;4998660;28;20233;-72
2020/12/16 11:42:08;;;;;;;4.72;1.30;;;5.00;99.90;;;;;;5005405;28;20270;-71
2020/12/16 11:44:34;;;;;;;3.58;1.10;;;5.00;99.90;;;;;;5006354;28;20665;-72
2020/12/16 11:47:02;;;;;;;1.33;1.00;;;5.00;99.90;;;;;;5001129;28;20187;-71
2020/12/16 11:49:27;;;;;;;1.42;1.08;;;5.00;99.90;;;;;;5003069;28;20252;-72
2020/12/16 11:51:54;;;;;;;6.53;1.45;;;5.00;99.90;;;;;;5000827;28;21042;-72
2020/12/16 11:54:21;;;;;;;2.05;1.27;;;5.10;99.90;;;;;;5000926;28;20226;-72
2020/12/16 11:56:47;;;;;;;2.40;1.17;;;5.10;99.90;;;;;;5001024;28;20916;-71
2020/12/16 11:59:12;;;;;;;1.05;0.98;;;5.10;99.90;;;;;;5000228;28;20217;-72
2020/12/16 12:01:38;;;;;;;2.60;1.00;;;5.10;99.90;;;;;;4998561;28;20226;-72
2020/12/16 12:04:04;;;;;;;4.05;1.10;;;5.10;99.90;;;;;;5001022;28;20286;-72
2020/12/16 12:06:30;;;;;;;2.78;1.17;;;5.10;99.90;;;;;;4999961;28;20646;-71
2020/12/16 12:08:56;;;;;;;2.83;1.30;;;5.20;99.90;;;;;;5000465;28;20293;-72
2020/12/16 12:11:21;;;;;;;2.25;1.27;;;5.20;99.90;;;;;;5000347;28;20257;-72
2020/12/16 12:13:47;;;;;;;4.20;1.33;;;5.10;99.90;;;;;;5005193;28;20199;-72
2020/12/16 12:16:15;;;;;;;3.25;1.10;;;5.10;99.90;;;;;;5001827;28;20206;-72
2020/12/16 12:18:43;;;;;;;2.63;1.23;;;5.20;99.90;;;;;;5002847;28;20288;-73
2020/12/16 12:21:09;;;;;;;1.60;1.20;;;5.20;99.90;;;;;;5001266;28;20191;-71
2020/12/16 12:23:35;;;;;;;1.48;1.20;;;5.20;99.90;;;;;;5000218;28;20761;-71
2020/12/16 12:26:05;;;;;;;3.17;1.20;;;5.20;99.90;;;;;;5007016;28;20253;-71
2020/12/16 12:28:31;;;;;;;1.02;1.00;;;5.20;99.90;;;;;;4998066;28;20199;-71
2020/12/16 12:30:57;;;;;;;3.30;1.20;;;5.20;99.90;;;;;;4999273;28;20195;-71
2020/12/16 12:33:23;;;;;;;1.58;1.10;;;5.20;99.90;;;;;;4998663;28;20221;-72
2020/12/16 12:35:49;;;;;;;1.35;1.10;;;5.20;99.90;;;;;;4999253;28;20199;-72
2020/12/16 12:38:15;;;;;;;4.13;1.40;;;5.10;99.90;;;;;;5002718;28;20212;-73
2020/12/16 12:40:58;;;;;;;2.55;1.20;;;5.10;99.90;;;;;;4976011;28;20558;-71
2020/12/16 12:43:24;;;;;;;3.75;1.38;;;5.10;99.90;;;;;;5008253;28;20628;-71
2020/12/16 12:45:50;;;;;;;2.50;1.30;;;5.10;99.90;;;;;;4996603;28;20211;-71
2020/12/16 12:48:15;;;;;;;2.08;1.30;;;5.20;99.90;;;;;;5000314;28;20202;-71
2020/12/16 12:50:41;;;;;;;3.83;1.30;;;5.20;99.90;;;;;;5003238;28;20199;-71
2020/12/16 12:53:08;;;;;;;2.50;1.48;;;5.10;99.90;;;;;;4999002;28;20203;-71
2020/12/16 12:55:34;;;;;;;1.38;1.13;;;5.00;99.90;;;;;;4998562;28;20221;-71
2020/12/16 12:57:59;;;;;;;2.40;1.27;;;4.90;99.90;;;;;;4995436;28;20800;-72
2020/12/16 13:00:25;;;;;;;2.30;1.20;;;4.80;99.90;;;;;;4999895;28;20198;-72
2020/12/16 13:02:51;;;;;;;2.75;1.33;;;4.70;99.90;;;;;;5002399;28;20373;-73
2020/12/16 13:05:16;;;;;;;2.38;1.45;;;4.60;99.90;;;;;;4998762;28;20234;-73